Time;durP1;ratioP1;P1;durP2;ratioP2;P2;SDS_P1;SDS_P2;PMS_P1;PMS_P2;Temp;Humidity;BMP_temperature;BMP_pressure;BME280_temperature;BME280_humidity;BME280_pressure;Samples;Min_cycle;Max_cycle;Signal;HPM_P1;HPM_P2
2023/02/19 00:01:37;;;;;;;0.10;0.10;;;;;;;;;;5068370;28;20568;-62
2023/02/19 00:04:12;;;;;;;4.80;0.20;;;;;;;;;;5068538;28;20109;-62
2023/02/19 00:08:17;;;;;;;0.07;0.07;;;;;;;;;;5064861;28;20465;-62
2023/02/19 00:10:44;;;;;;;0.00;0.00;;;;;;;;;;5064398;28;20443;-63
2023/02/19 00:14:57;;;;;;;0.00;0.00;;;;;;;;;;5056185;27;2112186;-61
2023/02/19 00:17:24;;;;;;;0.00;0.00;;;;;;;;;;5124438;28;20024;-61
2023/02/19 00:19:50;;;;;;;5.93;0.20;;;;;;;;;;5130492;27;20030;-62
2023/02/19 00:22:17;;;;;;;0.10;0.10;;;;;;;;;;5130061;27;20020;-63
2023/02/19 00:24:44;;;;;;;0.00;0.00;;;;;;;;;;5130896;27;20019;-61
2023/02/19 00:27:10;;;;;;;0.10;0.03;;;;;;;;;;5128693;27;20045;-61
2023/02/19 00:29:37;;;;;;;0.00;0.00;;;;;;;;;;5129876;27;20039;-62
2023/02/19 00:34:53;;;;;;;0.17;0.10;;;;;;;;;;5043718;27;2132817;-61
2023/02/19 00:37:20;;;;;;;0.00;0.00;;;;;;;;;;5117495;28;20106;-61
2023/02/19 00:39:46;;;;;;;0.00;0.00;;;;;;;;;;5116258;28;20032;-61
2023/02/19 00:42:13;;;;;;;0.00;0.00;;;;;;;;;;5110278;28;20095;-61
2023/02/19 00:44:40;;;;;;;0.00;0.00;;;;;;;;;;5110233;28;20459;-61
2023/02/19 00:47:06;;;;;;;0.00;0.00;;;;;;;;;;5110209;28;20462;-61
2023/02/19 00:49:33;;;;;;;0.20;0.20;;;;;;;;;;5110128;28;20353;-61
2023/02/19 00:52:00;;;;;;;0.00;0.00;;;;;;;;;;5108566;28;20138;-61
2023/02/19 00:54:26;;;;;;;0.47;0.27;;;;;;;;;;5104623;28;20085;-62
2023/02/19 00:56:53;;;;;;;0.33;0.17;;;;;;;;;;5104534;28;20020;-61
2023/02/19 00:59:20;;;;;;;0.00;0.00;;;;;;;;;;5104480;28;20085;-61
2023/02/19 01:01:48;;;;;;;1.33;0.17;;;;;;;;;;5104661;28;20020;-62
2023/02/19 01:05:53;;;;;;;0.07;0.07;;;;;;;;;;5068861;28;20435;-61
2023/02/19 01:08:20;;;;;;;0.03;0.03;;;;;;;;;;5069614;28;20382;-61
2023/02/19 01:10:47;;;;;;;0.20;0.10;;;;;;;;;;5069624;28;20078;-61
2023/02/19 01:13:13;;;;;;;0.00;0.00;;;;;;;;;;5069367;28;20033;-61
2023/02/19 01:15:40;;;;;;;0.20;0.17;;;;;;;;;;5065551;28;20028;-62
2023/02/19 01:18:07;;;;;;;0.00;0.00;;;;;;;;;;5064266;28;20048;-62
2023/02/19 01:21:06;;;;;;;0.00;0.00;;;;;;;;;;5166193;27;20352;-62
2023/02/19 01:23:33;;;;;;;0.00;0.00;;;;;;;;;;5146277;27;20054;-62
2023/02/19 01:26:00;;;;;;;0.30;0.10;;;;;;;;;;5150598;27;20022;-62
2023/02/19 01:28:26;;;;;;;0.73;0.40;;;;;;;;;;5150824;27;20057;-62
2023/02/19 01:30:53;;;;;;;1.43;0.37;;;;;;;;;;5151159;27;20023;-62
2023/02/19 01:33:20;;;;;;;0.57;0.33;;;;;;;;;;5151131;27;20476;-62
2023/02/19 01:35:46;;;;;;;0.23;0.20;;;;;;;;;;5151272;27;20097;-62
2023/02/19 01:38:13;;;;;;;0.00;0.00;;;;;;;;;;5130927;27;20035;-62
2023/02/19 01:40:40;;;;;;;0.43;0.20;;;;;;;;;;5125412;28;20030;-61
2023/02/19 01:43:11;;;;;;;0.00;0.00;;;;;;;;;;5125200;28;20106;-62
2023/02/19 01:45:39;;;;;;;0.83;0.20;;;;;;;;;;5124823;28;20015;-62
2023/02/19 01:48:19;;;;;;;0.00;0.00;;;;;;;;;;5128901;28;20081;-61
2023/02/19 01:50:58;;;;;;;0.10;0.10;;;;;;;;;;5130474;28;20021;-62
2023/02/19 01:53:25;;;;;;;0.20;0.17;;;;;;;;;;5130372;28;20019;-62
2023/02/19 01:55:55;;;;;;;0.00;0.00;;;;;;;;;;5129762;28;20106;-62
2023/02/19 01:58:22;;;;;;;0.10;0.00;;;;;;;;;;5130074;28;20428;-62
2023/02/19 02:00:50;;;;;;;0.00;0.00;;;;;;;;;;5124596;28;20027;-62
2023/02/19 02:03:17;;;;;;;0.63;0.23;;;;;;;;;;5124873;28;20107;-62
2023/02/19 02:05:48;;;;;;;0.00;0.00;;;;;;;;;;5124753;28;20035;-62
2023/02/19 02:11:02;;;;;;;0.23;0.13;;;;;;;;;;5129896;27;20508;-62
2023/02/19 02:13:29;;;;;;;0.33;0.10;;;;;;;;;;5129772;27;20351;-62
2023/02/19 02:16:14;;;;;;;0.00;0.00;;;;;;;;;;5129635;27;20433;-62
2023/02/19 02:18:51;;;;;;;0.00;0.00;;;;;;;;;;5129514;27;20497;-62
2023/02/19 02:21:30;;;;;;;0.30;0.30;;;;;;;;;;5127770;27;20481;-63
2023/02/19 02:24:09;;;;;;;0.30;0.20;;;;;;;;;;5124063;27;20031;-63
2023/02/19 02:26:35;;;;;;;0.80;0.20;;;;;;;;;;5123846;27;20427;-62
2023/02/19 02:29:21;;;;;;;0.40;0.40;;;;;;;;;;5123192;27;20488;-62
2023/02/19 02:31:53;;;;;;;0.10;0.10;;;;;;;;;;5115106;28;20033;-62
2023/02/19 02:34:27;;;;;;;0.47;0.27;;;;;;;;;;5114595;28;20028;-63
2023/02/19 02:36:55;;;;;;;0.47;0.40;;;;;;;;;;5115294;28;20023;-62
2023/02/19 02:39:23;;;;;;;1.70;0.30;;;;;;;;;;5115051;28;20024;-62
2023/02/19 02:42:25;;;;;;;1.10;0.43;;;;;;;;;;5115213;28;20477;-61
2023/02/19 02:44:38;;;;;;;0.43;0.33;;;;;;;;;;5111285;28;20036;-61
2023/02/19 02:47:06;;;;;;;4.10;0.30;;;;;;;;;;5109725;28;20028;-62
2023/02/19 02:50:03;;;;;;;0.43;0.43;;;;;;;;;;5110290;28;20359;-61
2023/02/19 02:55:09;;;;;;;0.83;0.60;;;;;;;;;;5094220;28;20039;-62
2023/02/19 02:57:36;;;;;;;0.50;0.47;;;;;;;;;;5094936;28;20539;-62
2023/02/19 03:00:03;;;;;;;1.50;0.87;;;;;;;;;;5094638;28;20500;-62
2023/02/19 03:02:31;;;;;;;0.60;0.40;;;;;;;;;;5094893;28;20425;-62
2023/02/19 03:08:06;;;;;;;1.20;0.70;;;;;;;;;;5006807;28;20466;-62
2023/02/19 03:10:38;;;;;;;1.00;0.60;;;;;;;;;;5006931;28;20060;-62
2023/02/19 03:21:26;;;;;;;0.30;0.20;;;;;;;;;;5114681;28;20043;-62
2023/02/19 03:26:39;;;;;;;10.20;0.50;;;;;;;;;;5114863;28;20078;-62
2023/02/19 03:29:22;;;;;;;0.07;0.07;;;;;;;;;;5110291;28;20031;-61
2023/02/19 03:31:56;;;;;;;0.20;0.20;;;;;;;;;;5109566;28;20023;-63
2023/02/19 03:34:30;;;;;;;0.90;0.40;;;;;;;;;;5109481;28;20031;-61
2023/02/19 03:37:15;;;;;;;0.30;0.23;;;;;;;;;;5109187;28;20027;-61
2023/02/19 03:39:45;;;;;;;0.43;0.35;;;;;;;;;;5114200;28;20058;-61
2023/02/19 03:42:32;;;;;;;0.37;0.27;;;;;;;;;;5113656;28;20024;-61
2023/02/19 03:45:06;;;;;;;0.30;0.23;;;;;;;;;;5113650;28;20040;-61
2023/02/19 03:47:42;;;;;;;0.55;0.47;;;;;;;;;;5113538;28;20110;-61
2023/02/19 03:50:09;;;;;;;0.40;0.30;;;;;;;;;;5112892;28;20020;-61
2023/02/19 03:52:35;;;;;;;0.17;0.13;;;;;;;;;;5109044;28;20076;-61
2023/02/19 03:55:05;;;;;;;0.20;0.20;;;;;;;;;;5108940;28;20023;-61
2023/02/19 03:57:38;;;;;;;0.63;0.37;;;;;;;;;;5109090;28;20130;-61
2023/02/19 04:00:09;;;;;;;0.00;0.00;;;;;;;;;;5108732;28;20424;-62
2023/02/19 04:02:44;;;;;;;0.47;0.37;;;;;;;;;;5113953;28;20028;-61
2023/02/19 04:05:16;;;;;;;0.53;0.37;;;;;;;;;;5113869;28;20030;-62
2023/02/19 04:07:46;;;;;;;1.17;0.60;;;;;;;;;;5113783;28;20015;-62
2023/02/19 04:10:13;;;;;;;0.50;0.37;;;;;;;;;;5113817;28;20024;-61
2023/02/19 04:12:42;;;;;;;0.20;0.20;;;;;;;;;;5111662;28;20415;-61
2023/02/19 04:15:13;;;;;;;0.40;0.30;;;;;;;;;;5108637;28;20570;-62
2023/02/19 04:17:45;;;;;;;1.97;0.60;;;;;;;;;;5108441;28;20035;-62
2023/02/19 04:20:16;;;;;;;0.17;0.17;;;;;;;;;;5108200;28;20027;-62
2023/02/19 04:22:43;;;;;;;0.27;0.23;;;;;;;;;;5109836;28;20027;-62
2023/02/19 04:25:10;;;;;;;0.93;0.50;;;;;;;;;;5113130;28;20096;-61
2023/02/19 04:27:40;;;;;;;0.70;0.33;;;;;;;;;;5113454;28;20023;-61
2023/02/19 04:30:08;;;;;;;1.07;0.50;;;;;;;;;;5113276;28;20050;-61
2023/02/19 04:32:34;;;;;;;0.23;0.23;;;;;;;;;;5113391;28;20020;-61
2023/02/19 04:35:01;;;;;;;0.17;0.17;;;;;;;;;;5111024;28;20461;-62
2023/02/19 04:37:28;;;;;;;0.20;0.13;;;;;;;;;;5108193;28;20400;-61
2023/02/19 04:39:54;;;;;;;0.50;0.40;;;;;;;;;;5107471;28;20036;-61
2023/02/19 04:42:21;;;;;;;3.63;1.47;;;;;;;;;;5107721;28;20164;-61
2023/02/19 04:44:48;;;;;;;2.07;0.77;;;;;;;;;;5109270;28;20031;-62
2023/02/19 04:47:16;;;;;;;0.63;0.53;;;;;;;;;;5113139;28;20024;-62
2023/02/19 04:49:43;;;;;;;12.07;1.50;;;;;;;;;;5113210;28;20477;-61
2023/02/19 04:52:10;;;;;;;3.07;1.23;;;;;;;;;;5113039;28;20446;-61
2023/02/19 04:54:39;;;;;;;6.37;2.17;;;;;;;;;;5112912;28;20158;-61
2023/02/19 04:57:06;;;;;;;1.53;1.07;;;;;;;;;;5110907;28;20027;-62
2023/02/19 04:59:33;;;;;;;4.03;1.60;;;;;;;;;;5107451;28;20059;-62
2023/02/19 05:01:59;;;;;;;3.43;1.33;;;;;;;;;;5107192;28;20030;-61
2023/02/19 05:04:26;;;;;;;2.80;1.07;;;;;;;;;;5107760;28;20461;-62
2023/02/19 05:06:53;;;;;;;5.50;2.00;;;;;;;;;;5108601;28;20019;-61
2023/02/19 05:09:19;;;;;;;28.67;1.50;;;;;;;;;;5112855;28;20053;-61
2023/02/19 05:11:46;;;;;;;15.17;2.10;;;;;;;;;;5112211;28;20028;-62
2023/02/19 05:14:13;;;;;;;1.33;0.83;;;;;;;;;;5112593;28;20069;-61
2023/02/19 05:16:39;;;;;;;3.27;1.53;;;;;;;;;;5112417;28;20027;-61
2023/02/19 05:19:06;;;;;;;4.57;1.13;;;;;;;;;;5110925;28;20038;-61
2023/02/19 05:21:33;;;;;;;4.20;1.23;;;;;;;;;;5107294;28;20031;-61
2023/02/19 05:23:59;;;;;;;6.13;0.97;;;;;;;;;;5107899;28;20357;-62
2023/02/19 05:26:26;;;;;;;5.07;1.10;;;;;;;;;;5107490;28;20354;-61
2023/02/19 05:28:53;;;;;;;0.47;0.43;;;;;;;;;;5107692;28;20031;-61
2023/02/19 05:31:20;;;;;;;1.77;1.03;;;;;;;;;;5112486;28;20024;-61
2023/02/19 05:33:49;;;;;;;1.50;0.67;;;;;;;;;;5112665;28;20122;-62
2023/02/19 05:36:17;;;;;;;1.70;0.60;;;;;;;;;;5112125;28;20542;-61
2023/02/19 05:38:43;;;;;;;3.23;1.43;;;;;;;;;;5112505;28;20024;-61
2023/02/19 05:41:17;;;;;;;1.30;0.97;;;;;;;;;;5111506;28;20024;-61
2023/02/19 05:43:45;;;;;;;2.20;0.93;;;;;;;;;;5106937;28;20098;-61
2023/02/19 05:46:13;;;;;;;0.83;0.60;;;;;;;;;;5107218;28;20497;-61
2023/02/19 05:48:40;;;;;;;1.97;1.40;;;;;;;;;;5107153;28;20110;-61
2023/02/19 05:51:08;;;;;;;1.37;0.87;;;;;;;;;;5107756;28;20097;-61
2023/02/19 05:53:35;;;;;;;1.90;1.23;;;;;;;;;;5112461;28;20095;-61
2023/02/19 05:56:02;;;;;;;1.43;0.60;;;;;;;;;;5112368;28;20020;-61
2023/02/19 05:58:28;;;;;;;1.17;0.87;;;;;;;;;;5112384;28;20031;-61
2023/02/19 06:00:55;;;;;;;0.97;0.63;;;;;;;;;;5112117;28;20034;-62
2023/02/19 06:03:22;;;;;;;2.60;0.93;;;;;;;;;;5111412;28;20026;-62
2023/02/19 06:05:50;;;;;;;2.03;0.83;;;;;;;;;;5107418;28;20032;-61
2023/02/19 06:08:17;;;;;;;2.10;0.97;;;;;;;;;;5111196;28;20023;-61
2023/02/19 06:10:44;;;;;;;1.60;0.90;;;;;;;;;;5111095;28;20500;-61
2023/02/19 06:13:10;;;;;;;3.50;1.50;;;;;;;;;;5111054;28;20028;-62
2023/02/19 06:15:37;;;;;;;0.67;0.50;;;;;;;;;;5115712;28;20023;-62
2023/02/19 06:18:04;;;;;;;1.13;0.70;;;;;;;;;;5116186;28;20020;-61
2023/02/19 06:20:31;;;;;;;6.00;0.93;;;;;;;;;;5115837;28;20445;-62
2023/02/19 06:22:58;;;;;;;2.07;1.20;;;;;;;;;;5115856;28;20038;-60
2023/02/19 06:25:25;;;;;;;2.97;1.00;;;;;;;;;;5115428;28;20565;-62
2023/02/19 06:27:51;;;;;;;2.27;1.10;;;;;;;;;;5110722;28;20089;-61
2023/02/19 06:30:18;;;;;;;1.77;0.93;;;;;;;;;;5110491;28;20028;-61
2023/02/19 06:32:45;;;;;;;1.50;1.30;;;;;;;;;;5109763;28;20084;-61
2023/02/19 06:35:12;;;;;;;4.23;2.47;;;;;;;;;;5110386;28;20194;-61
2023/02/19 06:37:38;;;;;;;1.50;1.20;;;;;;;;;;5115261;28;20103;-61
2023/02/19 06:40:05;;;;;;;3.70;2.13;;;;;;;;;;5115591;28;20477;-60
2023/02/19 06:42:32;;;;;;;3.00;1.67;;;;;;;;;;5115454;28;20414;-61
2023/02/19 06:44:58;;;;;;;4.10;1.60;;;;;;;;;;5115610;28;20108;-61
2023/02/19 06:47:25;;;;;;;3.37;1.70;;;;;;;;;;5115242;28;20031;-63
2023/02/19 06:49:52;;;;;;;2.87;2.07;;;;;;;;;;5110038;28;20106;-61
2023/02/19 06:52:18;;;;;;;23.23;1.47;;;;;;;;;;5110112;28;20041;-61
2023/02/19 06:54:45;;;;;;;2.13;1.60;;;;;;;;;;5109958;28;20047;-61
2023/02/19 06:57:12;;;;;;;1.93;1.43;;;;;;;;;;5109885;28;20039;-60
2023/02/19 06:59:38;;;;;;;1.70;1.20;;;;;;;;;;5114422;28;20080;-61
2023/02/19 07:02:05;;;;;;;8.73;1.83;;;;;;;;;;5114928;28;20020;-61
2023/02/19 07:04:32;;;;;;;9.50;1.87;;;;;;;;;;5114935;28;20525;-61
2023/02/19 07:06:59;;;;;;;2.47;1.80;;;;;;;;;;5115067;28;20023;-61
2023/02/19 07:09:27;;;;;;;1.20;1.00;;;;;;;;;;5115063;28;20107;-61
2023/02/19 07:11:54;;;;;;;1.40;1.10;;;;;;;;;;5109808;28;20466;-61
2023/02/19 07:14:20;;;;;;;1.53;1.33;;;;;;;;;;5109790;28;20076;-62
2023/02/19 07:16:47;;;;;;;2.87;1.63;;;;;;;;;;5109613;28;20024;-61
2023/02/19 07:19:15;;;;;;;1.13;1.03;;;;;;;;;;5109622;28;20096;-61
2023/02/19 07:21:42;;;;;;;1.23;1.07;;;;;;;;;;5113315;28;20047;-61
2023/02/19 07:24:10;;;;;;;3.87;1.67;;;;;;;;;;5114734;28;20072;-61
2023/02/19 07:26:36;;;;;;;1.00;0.90;;;;;;;;;;5114699;28;20522;-61
2023/02/19 07:29:03;;;;;;;4.50;2.43;;;;;;;;;;5114530;28;20019;-61
2023/02/19 07:31:30;;;;;;;1.27;1.07;;;;;;;;;;5114498;28;20351;-61
2023/02/19 07:33:57;;;;;;;1.57;1.23;;;;;;;;;;5110024;28;20023;-61
2023/02/19 07:36:24;;;;;;;2.10;1.40;;;;;;;;;;5109115;28;20031;-61
2023/02/19 07:38:58;;;;;;;2.27;1.67;;;;;;;;;;5109314;28;20374;-61
2023/02/19 07:41:25;;;;;;;1.90;1.27;;;;;;;;;;5109159;28;20020;-60
2023/02/19 07:43:52;;;;;;;1.10;0.90;;;;;;;;;;5113243;28;20043;-61
2023/02/19 07:46:19;;;;;;;1.00;0.90;;;;;;;;;;5114096;28;20373;-61
2023/02/19 07:48:45;;;;;;;1.00;0.90;;;;;;;;;;5114265;28;20378;-61
2023/02/19 07:51:18;;;;;;;2.07;1.40;;;;;;;;;;5114082;28;20275;-61
2023/02/19 07:53:45;;;;;;;1.37;1.17;;;;;;;;;;5114155;28;20073;-61
2023/02/19 07:56:12;;;;;;;2.23;1.43;;;;;;;;;;5109461;28;20062;-61
2023/02/19 07:58:39;;;;;;;3.33;1.50;;;;;;;;;;5108848;28;20323;-61
2023/02/19 08:01:07;;;;;;;2.10;1.23;;;;;;;;;;5108609;28;20034;-61
2023/02/19 08:03:35;;;;;;;3.70;2.07;;;;;;;;;;5108657;28;20736;-61
2023/02/19 08:06:01;;;;;;;1.87;1.37;;;;;;;;;;5112681;28;20730;-61
2023/02/19 08:08:28;;;;;;;3.37;1.40;;;;;;;;;;5113651;28;20046;-61
2023/02/19 08:13:40;;;;;;;7.40;1.77;;;;;;;;;;5113831;28;20035;-61
2023/02/19 08:16:07;;;;;;;6.63;1.60;;;;;;;;;;5113869;28;20115;-61
2023/02/19 08:18:34;;;;;;;1.23;1.00;;;;;;;;;;5108336;28;20259;-61
2023/02/19 08:21:01;;;;;;;4.53;1.90;;;;;;;;;;5108306;28;20280;-61
2023/02/19 08:23:28;;;;;;;7.10;1.87;;;;;;;;;;5108262;28;20050;-61
2023/02/19 08:25:57;;;;;;;2.23;1.50;;;;;;;;;;5108293;28;20339;-61
2023/02/19 08:28:24;;;;;;;1.17;0.87;;;;;;;;;;5112308;28;20598;-61
2023/02/19 08:30:51;;;;;;;1.90;1.53;;;;;;;;;;5113215;28;20309;-61
2023/02/19 08:33:18;;;;;;;1.57;1.20;;;;;;;;;;5113222;28;20278;-61
2023/02/19 08:35:45;;;;;;;1.77;0.80;;;;;;;;;;5113161;28;20260;-61
2023/02/19 08:38:15;;;;;;;1.43;1.00;;;;;;;;;;5113106;28;20705;-61
2023/02/19 08:40:41;;;;;;;1.10;0.90;;;;;;;;;;5108180;28;20333;-61
2023/02/19 08:43:10;;;;;;;1.03;0.83;;;;;;;;;;5107528;28;20272;-61
2023/02/19 08:45:37;;;;;;;1.00;0.90;;;;;;;;;;5107991;28;20268;-61
2023/02/19 08:48:04;;;;;;;1.77;1.20;;;;;;;;;;5108022;28;20282;-61
2023/02/19 08:50:31;;;;;;;1.20;0.87;;;;;;;;;;5111632;28;20749;-61
2023/02/19 08:53:01;;;;;;;0.80;0.80;;;;;;;;;;5113107;28;20326;-61
2023/02/19 08:55:28;;;;;;;19.60;1.47;;;;;;;;;;5113019;28;20343;-61
2023/02/19 08:57:55;;;;;;;2.63;0.77;;;;;;;;;;5112941;28;20312;-61
2023/02/19 09:00:22;;;;;;;4.90;0.87;;;;;;;;;;5113025;28;20307;-61
2023/02/19 09:02:49;;;;;;;1.77;0.80;;;;;;;;;;5108022;28;20272;-61
2023/02/19 09:05:15;;;;;;;1.77;0.90;;;;;;;;;;5107385;28;20316;-61
2023/02/19 09:07:42;;;;;;;0.83;0.53;;;;;;;;;;5107714;28;20290;-61
2023/02/19 09:10:12;;;;;;;0.83;0.67;;;;;;;;;;5107062;28;20384;-61
2023/02/19 09:12:39;;;;;;;0.93;0.73;;;;;;;;;;5111473;28;20347;-61
2023/02/19 09:15:06;;;;;;;0.80;0.80;;;;;;;;;;5112797;28;20745;-61
2023/02/19 09:17:33;;;;;;;1.30;0.57;;;;;;;;;;5112075;28;20746;-61
2023/02/19 09:19:59;;;;;;;0.60;0.60;;;;;;;;;;5112683;28;20762;-61
2023/02/19 09:22:26;;;;;;;0.43;0.40;;;;;;;;;;5112108;28;20619;-61
2023/02/19 09:24:53;;;;;;;1.10;0.73;;;;;;;;;;5108334;28;20259;-61
2023/02/19 09:27:20;;;;;;;1.40;0.53;;;;;;;;;;5107563;28;20291;-61
2023/02/19 09:29:47;;;;;;;0.43;0.40;;;;;;;;;;5107421;28;20251;-61
2023/02/19 09:32:13;;;;;;;0.53;0.47;;;;;;;;;;5107376;28;20301;-61
2023/02/19 09:34:40;;;;;;;1.30;0.90;;;;;;;;;;5111028;28;20305;-61
2023/02/19 09:37:07;;;;;;;2.43;0.97;;;;;;;;;;5112257;28;20264;-61
2023/02/19 09:39:34;;;;;;;1.80;0.90;;;;;;;;;;5112459;28;20304;-61
2023/02/19 09:42:02;;;;;;;2.07;0.93;;;;;;;;;;5114828;28;20343;-61
2023/02/19 09:44:32;;;;;;;0.40;0.40;;;;;;;;;;5116898;28;20252;-61
2023/02/19 09:47:00;;;;;;;0.83;0.70;;;;;;;;;;5112251;28;20283;-61
2023/02/19 09:49:26;;;;;;;2.17;1.10;;;;;;;;;;5111325;28;20252;-61
2023/02/19 09:52:06;;;;;;;0.87;0.60;;;;;;;;;;5110851;28;20284;-61
2023/02/19 09:54:33;;;;;;;3.67;1.27;;;;;;;;;;5111128;28;20268;-61
2023/02/19 09:57:01;;;;;;;0.40;0.40;;;;;;;;;;5115453;28;20244;-61
2023/02/19 09:59:52;;;;;;;0.60;0.53;;;;;;;;;;5116452;28;20318;-61
2023/02/19 10:02:23;;;;;;;0.70;0.50;;;;;;;;;;5103708;28;20275;-61
2023/02/19 10:04:50;;;;;;;0.37;0.37;;;;;;;;;;5116295;28;20256;-61
2023/02/19 10:07:22;;;;;;;0.70;0.50;;;;;;;;;;5116155;28;20252;-60
2023/02/19 10:10:00;;;;;;;1.20;0.77;;;;;;;;;;5111042;28;20268;-62
2023/02/19 10:12:28;;;;;;;0.60;0.57;;;;;;;;;;5110873;28;20263;-61
2023/02/19 10:15:00;;;;;;;0.57;0.40;;;;;;;;;;5111074;28;20262;-61
2023/02/19 10:17:29;;;;;;;1.23;0.83;;;;;;;;;;5111069;28;20256;-61
2023/02/19 10:19:57;;;;;;;8.07;1.00;;;;;;;;;;5115648;28;20305;-61
2023/02/19 10:22:24;;;;;;;2.10;0.93;;;;;;;;;;5115984;28;20276;-61
2023/02/19 10:24:55;;;;;;;2.20;1.00;;;;;;;;;;5115385;28;20253;-61
2023/02/19 10:27:22;;;;;;;20.07;1.60;;;;;;;;;;5115933;28;20248;-61
2023/02/19 10:29:49;;;;;;;0.93;0.87;;;;;;;;;;5115175;28;20587;-61
2023/02/19 10:32:19;;;;;;;0.30;0.30;;;;;;;;;;5110399;28;20735;-61
2023/02/19 10:34:46;;;;;;;0.90;0.60;;;;;;;;;;5110409;28;20256;-61
2023/02/19 10:37:17;;;;;;;0.93;0.60;;;;;;;;;;5110408;28;20279;-61
2023/02/19 10:39:48;;;;;;;1.03;0.73;;;;;;;;;;5110546;28;20286;-61
2023/02/19 10:42:22;;;;;;;2.90;0.77;;;;;;;;;;5115281;28;20270;-61
2023/02/19 10:44:54;;;;;;;1.37;0.90;;;;;;;;;;5115527;28;20579;-61
2023/02/19 10:47:22;;;;;;;0.33;0.33;;;;;;;;;;5115549;28;20793;-61
2023/02/19 10:49:51;;;;;;;1.53;0.63;;;;;;;;;;5115241;28;20267;-61
2023/02/19 10:52:25;;;;;;;0.80;0.60;;;;;;;;;;5113124;28;20263;-61
2023/02/19 10:54:55;;;;;;;0.17;0.17;;;;;;;;;;5109977;28;20275;-61
2023/02/19 10:57:31;;;;;;;0.77;0.77;;;;;;;;;;5109955;28;20039;-61
2023/02/19 11:00:21;;;;;;;1.13;0.83;;;;;;;;;;5109940;28;20345;-61
2023/02/19 11:02:48;;;;;;;1.07;0.63;;;;;;;;;;5112412;28;20260;-61
2023/02/19 11:05:19;;;;;;;1.07;0.90;;;;;;;;;;5114990;28;20648;-61
2023/02/19 11:07:46;;;;;;;0.60;0.43;;;;;;;;;;5115132;28;20392;-61
2023/02/19 11:10:26;;;;;;;0.50;0.30;;;;;;;;;;5114847;28;20256;-61
2023/02/19 11:12:54;;;;;;;1.13;0.80;;;;;;;;;;5115425;28;20736;-61
2023/02/19 11:15:27;;;;;;;1.17;0.97;;;;;;;;;;5111500;28;20256;-61
2023/02/19 11:17:55;;;;;;;0.90;0.70;;;;;;;;;;5109771;28;20252;-61
2023/02/19 11:20:21;;;;;;;1.50;0.87;;;;;;;;;;5109413;28;20306;-61
2023/02/19 11:22:48;;;;;;;1.20;0.77;;;;;;;;;;5108986;28;20272;-61
2023/02/19 11:25:15;;;;;;;1.00;0.70;;;;;;;;;;5112358;28;20256;-61
2023/02/19 11:28:05;;;;;;;1.00;0.90;;;;;;;;;;5114637;28;20750;-61
2023/02/19 11:30:32;;;;;;;1.47;0.90;;;;;;;;;;5114922;28;20580;-61
2023/02/19 11:33:19;;;;;;;0.40;0.30;;;;;;;;;;5114481;28;20269;-60
2023/02/19 11:35:47;;;;;;;1.20;0.60;;;;;;;;;;5113955;28;20275;-61
2023/02/19 11:38:14;;;;;;;1.27;0.87;;;;;;;;;;5109313;28;20357;-61
2023/02/19 11:40:41;;;;;;;0.40;0.37;;;;;;;;;;5109261;28;20298;-61
2023/02/19 11:43:26;;;;;;;0.63;0.60;;;;;;;;;;5109167;28;20256;-61
2023/02/19 11:45:58;;;;;;;0.75;0.45;;;;;;;;;;5109046;28;20252;-61
2023/02/19 11:48:38;;;;;;;0.87;0.63;;;;;;;;;;5114196;28;20016;-60
2023/02/19 11:51:10;;;;;;;1.07;0.83;;;;;;;;;;5114256;28;20351;-61
2023/02/19 11:53:39;;;;;;;1.00;0.67;;;;;;;;;;5114166;28;20256;-61
2023/02/19 11:56:09;;;;;;;0.50;0.47;;;;;;;;;;5114238;28;20266;-61
2023/02/19 11:58:35;;;;;;;0.40;0.40;;;;;;;;;;5113041;28;20253;-61
2023/02/19 12:01:05;;;;;;;1.80;0.70;;;;;;;;;;5108784;28;20294;-61
2023/02/19 12:03:37;;;;;;;0.73;0.57;;;;;;;;;;5107914;28;20256;-61
2023/02/19 12:06:13;;;;;;;1.07;0.87;;;;;;;;;;5108145;28;20260;-61
2023/02/19 12:08:39;;;;;;;2.17;1.33;;;;;;;;;;5109627;28;20750;-60
2023/02/19 12:11:15;;;;;;;3.60;1.50;;;;;;;;;;5113852;28;20340;-61
2023/02/19 12:13:56;;;;;;;1.00;0.80;;;;;;;;;;5113878;28;20622;-61
2023/02/19 12:16:23;;;;;;;1.90;0.60;;;;;;;;;;5113714;28;20605;-60
2023/02/19 12:19:01;;;;;;;1.30;0.93;;;;;;;;;;5113560;28;20271;-60
2023/02/19 12:21:38;;;;;;;0.50;0.37;;;;;;;;;;5111058;28;20263;-60
2023/02/19 12:24:28;;;;;;;1.07;0.73;;;;;;;;;;5108465;28;20264;-60
2023/02/19 12:27:17;;;;;;;1.27;0.70;;;;;;;;;;5108571;28;20260;-60
2023/02/19 12:29:53;;;;;;;0.43;0.40;;;;;;;;;;5108342;28;20271;-61
2023/02/19 12:32:35;;;;;;;0.33;0.33;;;;;;;;;;5112547;28;20263;-61
2023/02/19 12:35:20;;;;;;;0.70;0.60;;;;;;;;;;5095032;28;20618;-61
2023/02/19 12:38:07;;;;;;;3.40;0.85;;;;;;;;;;5112958;28;20745;-60
2023/02/19 12:40:33;;;;;;;0.30;0.30;;;;;;;;;;5095935;28;20047;-60
2023/02/19 12:43:06;;;;;;;2.43;0.97;;;;;;;;;;5112002;28;20256;-60
2023/02/19 12:45:37;;;;;;;0.47;0.43;;;;;;;;;;5107880;28;20285;-61
2023/02/19 12:48:06;;;;;;;0.73;0.53;;;;;;;;;;5107566;28;20271;-60
2023/02/19 12:50:35;;;;;;;0.90;0.70;;;;;;;;;;5107791;28;20302;-61
2023/02/19 12:53:06;;;;;;;2.00;0.67;;;;;;;;;;5108856;28;20343;-60
2023/02/19 12:55:35;;;;;;;22.83;0.97;;;;;;;;;;5113204;28;20260;-60
2023/02/19 12:58:04;;;;;;;1.53;1.00;;;;;;;;;;5112940;28;20252;-61
2023/02/19 13:00:44;;;;;;;0.97;0.67;;;;;;;;;;5112683;28;20276;-60
2023/02/19 13:03:11;;;;;;;8.83;1.03;;;;;;;;;;5113072;28;20335;-61
2023/02/19 13:05:44;;;;;;;0.80;0.67;;;;;;;;;;5110130;28;20357;-61
2023/02/19 13:08:23;;;;;;;0.97;0.67;;;;;;;;;;5107717;28;20287;-60
2023/02/19 13:10:53;;;;;;;0.67;0.57;;;;;;;;;;5107100;28;20256;-61
2023/02/19 13:13:37;;;;;;;1.27;0.93;;;;;;;;;;5107574;28;20824;-61
2023/02/19 13:16:08;;;;;;;1.23;1.00;;;;;;;;;;5110310;28;20734;-60
2023/02/19 13:18:44;;;;;;;1.50;0.93;;;;;;;;;;5112586;28;20285;-60
2023/02/19 13:21:12;;;;;;;1.30;0.93;;;;;;;;;;5112736;28;20311;-60
2023/02/19 13:24:01;;;;;;;1.20;0.87;;;;;;;;;;5112759;28;20693;-60
2023/02/19 13:26:48;;;;;;;3.03;1.13;;;;;;;;;;5112381;28;20264;-60
2023/02/19 13:29:14;;;;;;;13.53;1.73;;;;;;;;;;5087127;28;20383;-60
2023/02/19 13:31:50;;;;;;;1.20;0.87;;;;;;;;;;5100963;28;20267;-60
2023/02/19 13:34:32;;;;;;;2.23;1.33;;;;;;;;;;5107305;28;20255;-60
2023/02/19 13:37:00;;;;;;;2.07;1.17;;;;;;;;;;5107554;28;20255;-60
2023/02/19 13:39:26;;;;;;;3.60;1.13;;;;;;;;;;5112492;28;20814;-60
2023/02/19 13:41:55;;;;;;;1.37;1.00;;;;;;;;;;5112693;28;20248;-60
2023/02/19 13:44:24;;;;;;;1.33;1.03;;;;;;;;;;5112370;28;20255;-60
2023/02/19 13:46:51;;;;;;;0.90;0.67;;;;;;;;;;5112529;28;20634;-60
2023/02/19 13:49:30;;;;;;;5.07;1.87;;;;;;;;;;5111408;28;20259;-60
2023/02/19 13:51:57;;;;;;;1.73;1.40;;;;;;;;;;5107214;28;20725;-60
2023/02/19 13:54:23;;;;;;;2.23;0.90;;;;;;;;;;5107174;28;20722;-61
2023/02/19 13:56:50;;;;;;;0.30;0.30;;;;;;;;;;5107257;28;20263;-60
2023/02/19 13:59:25;;;;;;;1.20;0.63;;;;;;;;;;5107793;28;20663;-61
2023/02/19 14:01:55;;;;;;;1.20;0.93;;;;;;;;;;5111830;28;20760;-60
2023/02/19 14:04:21;;;;;;;0.47;0.47;;;;;;;;;;5112360;28;20038;-61
2023/02/19 14:07:03;;;;;;;1.03;0.70;;;;;;;;;;5112445;28;20255;-60
2023/02/19 14:09:36;;;;;;;1.83;0.80;;;;;;;;;;5112603;28;20314;-60
2023/02/19 14:12:09;;;;;;;2.03;1.00;;;;;;;;;;5109589;28;20359;-61
2023/02/19 14:14:45;;;;;;;0.47;0.43;;;;;;;;;;5106960;28;20256;-61
2023/02/19 14:17:26;;;;;;;0.50;0.40;;;;;;;;;;5107006;28;20260;-61
2023/02/19 14:19:54;;;;;;;2.80;1.00;;;;;;;;;;5106590;28;20284;-61
2023/02/19 14:22:39;;;;;;;2.47;0.83;;;;;;;;;;5109012;28;20264;-61
2023/02/19 14:25:09;;;;;;;1.52;0.70;;;;;;;;;;5112176;28;20248;-61
2023/02/19 14:27:37;;;;;;;2.87;1.23;;;;;;;;;;5113942;28;20489;-60
2023/02/19 14:30:04;;;;;;;3.47;1.27;;;;;;;;;;5115833;28;20342;-61
2023/02/19 14:32:31;;;;;;;3.90;2.00;;;;;;;;;;5114847;28;20260;-61
2023/02/19 14:34:57;;;;;;;1.33;0.87;;;;;;;;;;5111586;28;20248;-61
2023/02/19 14:37:25;;;;;;;1.93;1.13;;;;;;;;;;5110310;28;20777;-61
2023/02/19 14:39:53;;;;;;;1.30;1.00;;;;;;;;;;5110277;28;20773;-61
2023/02/19 14:42:25;;;;;;;2.17;1.27;;;;;;;;;;5110099;28;20283;-61
2023/02/19 14:44:59;;;;;;;2.67;1.37;;;;;;;;;;5113489;28;20252;-61
2023/02/19 14:47:29;;;;;;;0.63;0.63;;;;;;;;;;5115548;28;20264;-61
2023/02/19 14:50:04;;;;;;;1.50;1.10;;;;;;;;;;5115498;28;20248;-60
2023/02/19 14:52:59;;;;;;;0.93;0.80;;;;;;;;;;5115488;28;20252;-61
2023/02/19 14:55:26;;;;;;;1.85;1.15;;;;;;;;;;5093615;28;20588;-61
2023/02/19 14:57:54;;;;;;;3.47;1.60;;;;;;;;;;5110104;28;20470;-61
2023/02/19 15:00:25;;;;;;;4.67;1.47;;;;;;;;;;5109816;28;20291;-61
2023/02/19 15:02:57;;;;;;;1.33;0.87;;;;;;;;;;5109560;28;20028;-61
2023/02/19 15:05:24;;;;;;;3.50;1.03;;;;;;;;;;5109384;28;20031;-61
2023/02/19 15:07:51;;;;;;;1.93;1.20;;;;;;;;;;5115028;28;20030;-61
2023/02/19 15:10:18;;;;;;;0.97;0.77;;;;;;;;;;5114865;28;20027;-61
2023/02/19 15:12:53;;;;;;;0.97;0.50;;;;;;;;;;5114728;28;20031;-61
2023/02/19 15:15:29;;;;;;;0.30;0.20;;;;;;;;;;5115065;28;20101;-61
2023/02/19 15:17:56;;;;;;;5.83;0.80;;;;;;;;;;5113371;28;20036;-61
2023/02/19 15:20:24;;;;;;;1.90;0.90;;;;;;;;;;5109305;28;20046;-61
2023/02/19 15:22:52;;;;;;;1.00;0.53;;;;;;;;;;5109402;28;20034;-61
2023/02/19 15:25:24;;;;;;;0.97;0.30;;;;;;;;;;5109500;28;20051;-60
2023/02/19 15:27:51;;;;;;;0.83;0.50;;;;;;;;;;5110086;28;20478;-60
2023/02/19 15:30:20;;;;;;;6.43;2.10;;;;;;;;;;5114332;28;20069;-61